This is the latest recevied weather packets stored in our database for station/object IZ2XCK-13. If no packets are shown the sender has not sent any weather packets the latest 10 day(s).
| Time | Temp. | Humidity | Pressure | Rain* | Wind** | Luminosity | Snow |
|---|---|---|---|---|---|---|---|
| 1778041540 | 12.22° C | 99% | 1011.6 hPa | - | - | - | - |
| 1778040339 | 12.22° C | 98% | 1011.4 hPa | - | - | - | - |
| 1778039139 | 11.67° C | 99% | 1011.3 hPa | - | - | - | - |
| 1778037939 | 12.22° C | 98% | 1011.9 hPa | - | - | - | - |
| 1778036738 | 12.22° C | 99% | 1012.2 hPa | - | - | - | - |
| 1778035538 | 11.67° C | 99% | 1012.5 hPa | - | - | - | - |
| 1778034338 | 12.22° C | 95% | 1012.7 hPa | - | - | - | - |
| 1778033137 | 12.22° C | 99% | 1012.7 hPa | - | - | - | - |
| 1778031937 | 12.22° C | 99% | 1012.4 hPa | - | - | - | - |
| 1778030737 | 12.22° C | 99% | 1012.5 hPa | - | - | - | - |
| 1778029536 | 11.67° C | 99% | 1012.9 hPa | - | - | - | - |
| 1778028336 | 12.22° C | 99% | 1012.9 hPa | - | - | - | - |
| 1778027136 | 11.67° C | 99% | 1013.2 hPa | - | - | - | - |
| 1778025936 | 11.67° C | 99% | 1013.3 hPa | - | - | - | - |
| 1778024735 | 12.78° C | 94% | 1013.4 hPa | - | - | - | - |
| 1778023535 | 12.22° C | 95% | 1013.6 hPa | - | - | - | - |
| 1778022334 | 12.22° C | 99% | 1013.6 hPa | - | - | - | - |
| 1778021134 | 11.67° C | 99% | 1013.4 hPa | - | - | - | - |
| 1778019934 | 12.22° C | 95% | 1013.6 hPa | - | - | - | - |
| 1778017533 | 12.22° C | 97% | 1013.9 hPa | - | - | - | - |
| 1778016333 | 12.78° C | 91% | 1014.3 hPa | - | - | - | - |
| 1778015133 | 12.22° C | 97% | 1014.4 hPa | - | - | - | - |
| 1778013932 | 11.67° C | 99% | 1014.5 hPa | - | - | - | - |
| 1778012732 | 12.22° C | 97% | 1014.6 hPa | - | - | - | - |
| 1778011532 | 11.67° C | 99% | 1014.6 hPa | - | - | - | - |
* Rain since midnight (hover to see other rain measurements)
** Current wind speed in m/s (hover to see current wind gust speed)